createdAt,value
2018-01-16T00:00:21.162Z,36.74
2018-01-16T00:01:21.150Z,36.74
2018-01-16T00:02:21.153Z,36.74
2018-01-16T00:03:21.135Z,36.74
2018-01-16T00:04:21.107Z,36.83
2018-01-16T00:05:21.086Z,37.02
2018-01-16T00:06:21.084Z,36.93
2018-01-16T00:07:21.060Z,37.02
2018-01-16T00:08:21.081Z,36.83
2018-01-16T00:09:21.033Z,37.02
2018-01-16T00:10:21.022Z,37.02
2018-01-16T00:11:21.010Z,36.83
2018-01-16T00:12:21.011Z,36.93
2018-01-16T00:13:20.981Z,37.02
2018-01-16T00:14:20.985Z,37.12
2018-01-16T00:15:20.949Z,36.83
2018-01-16T00:16:20.946Z,36.93
2018-01-16T00:17:20.930Z,37.02
2018-01-16T00:18:20.934Z,36.83
2018-01-16T00:19:20.936Z,36.93
2018-01-16T00:20:20.887Z,36.93
2018-01-16T00:21:20.859Z,37.12
2018-01-16T00:22:20.862Z,37.02
2018-01-16T00:23:20.840Z,36.93
2018-01-16T00:24:20.850Z,37.02
2018-01-16T00:25:20.812Z,37.02
2018-01-16T00:26:20.818Z,36.93
2018-01-16T00:27:21.314Z,36.93
2018-01-16T00:28:20.773Z,37.02
2018-01-16T00:29:20.773Z,37.12
2018-01-16T00:30:20.763Z,37.02
2018-01-16T00:31:20.724Z,37.12
2018-01-16T00:32:20.730Z,37.02
2018-01-16T00:33:20.723Z,37.12
2018-01-16T00:34:20.681Z,37.12
2018-01-16T00:35:20.688Z,37.02
2018-01-16T00:36:20.666Z,37.22
2018-01-16T00:37:20.640Z,37.22
2018-01-16T00:38:20.679Z,37.12
2018-01-16T00:39:20.612Z,37.12
2018-01-16T00:40:20.623Z,37.22
2018-01-16T00:41:20.588Z,37.32
2018-01-16T00:42:20.577Z,37.12
2018-01-16T00:43:20.558Z,37.41
2018-01-16T00:44:20.576Z,37.22
2018-01-16T00:45:20.557Z,37.32
2018-01-16T00:46:20.570Z,37.32
2018-01-16T00:47:20.503Z,37.22
2018-01-16T00:48:20.522Z,37.22
2018-01-16T00:49:20.480Z,37.22
2018-01-16T00:50:20.487Z,37.34
2018-01-16T00:51:20.451Z,37.32
2018-01-16T00:52:20.449Z,37.32
2018-01-16T00:53:20.426Z,37.32
2018-01-16T00:54:20.410Z,37.14
2018-01-16T00:55:20.477Z,37.12
2018-01-16T00:56:20.383Z,37.34
2018-01-16T00:57:20.368Z,37.24
2018-01-16T00:58:20.369Z,37.14
2018-01-16T00:59:20.334Z,37.24
2018-01-16T01:00:20.353Z,37.24
2018-01-16T01:01:20.312Z,37.24
2018-01-16T01:02:20.303Z,37.14
2018-01-16T01:03:20.307Z,37.14
2018-01-16T01:04:20.276Z,37.14
2018-01-16T01:05:20.280Z,37.14
2018-01-16T01:06:20.243Z,37.24
2018-01-16T01:07:20.238Z,37.24
2018-01-16T01:08:20.215Z,37.52
2018-01-16T01:09:20.198Z,37.34
2018-01-16T01:10:20.226Z,37.24
2018-01-16T01:11:20.201Z,37.43
2018-01-16T01:12:20.171Z,37.34
2018-01-16T01:13:20.177Z,37.34
2018-01-16T01:14:20.148Z,37.24
2018-01-16T01:15:20.170Z,37.43
2018-01-16T01:16:20.167Z,37.24
2018-01-16T01:17:20.118Z,37.43
2018-01-16T01:18:20.151Z,37.34
2018-01-16T01:19:20.092Z,37.34
2018-01-16T01:20:20.129Z,37.24
2018-01-16T01:21:20.050Z,37.43
2018-01-16T01:22:20.103Z,37.24
2018-01-16T01:23:20.031Z,37.43
2018-01-16T01:24:20.024Z,37.72
2018-01-16T01:25:19.997Z,37.52
2018-01-16T01:26:19.971Z,37.34
2018-01-16T01:27:19.999Z,37.52
2018-01-16T01:28:19.960Z,37.24
2018-01-16T01:29:19.944Z,37.52
2018-01-16T01:30:19.946Z,37.34
2018-01-16T01:31:19.917Z,37.34
2018-01-16T01:32:19.930Z,37.34
2018-01-16T01:33:19.896Z,37.62
2018-01-16T01:34:19.923Z,37.43
2018-01-16T01:35:19.863Z,37.43
2018-01-16T01:36:19.863Z,37.43
2018-01-16T01:37:19.859Z,37.72
2018-01-16T01:38:19.847Z,37.62
2018-01-16T01:39:19.814Z,37.34
2018-01-16T01:40:19.811Z,37.52
2018-01-16T01:41:19.804Z,37.43
2018-01-16T01:42:19.775Z,37.52
2018-01-16T01:43:19.765Z,37.43
2018-01-16T01:44:20.042Z,37.34
2018-01-16T01:45:19.715Z,37.62
2018-01-16T01:46:19.719Z,37.43
2018-01-16T01:47:19.745Z,37.62
2018-01-16T01:48:19.703Z,37.62
2018-01-16T01:49:19.697Z,37.72
2018-01-16T01:50:19.670Z,37.64
2018-01-16T01:51:19.651Z,37.62
2018-01-16T01:52:19.642Z,37.54
2018-01-16T01:53:19.623Z,37.64
2018-01-16T01:54:19.646Z,37.64
2018-01-16T01:55:19.594Z,37.52
2018-01-16T01:56:19.574Z,37.62
2018-01-16T01:57:19.576Z,37.72
2018-01-16T01:58:19.564Z,37.62
2018-01-16T01:59:19.545Z,37.64
2018-01-16T02:00:19.550Z,37.54
2018-01-16T02:01:19.517Z,37.64
2018-01-16T02:02:19.531Z,37.64
2018-01-16T02:03:19.487Z,37.64
2018-01-16T02:04:19.511Z,37.64
2018-01-16T02:05:19.469Z,37.64
2018-01-16T02:06:19.454Z,37.64
2018-01-16T02:07:19.461Z,37.64
2018-01-16T02:08:19.654Z,37.64
2018-01-16T02:09:19.406Z,37.52
2018-01-16T02:10:19.397Z,37.54
2018-01-16T02:11:19.385Z,37.64
2018-01-16T02:12:19.373Z,37.54
2018-01-16T02:13:19.377Z,37.74
2018-01-16T02:14:19.335Z,37.74
2018-01-16T02:15:19.327Z,37.54
2018-01-16T02:16:19.319Z,37.64
2018-01-16T02:17:19.302Z,37.54
2018-01-16T02:18:19.314Z,37.64
2018-01-16T02:19:19.306Z,37.45
2018-01-16T02:20:19.265Z,37.45
2018-01-16T02:21:19.247Z,37.64
2018-01-16T02:22:19.238Z,37.74
2018-01-16T02:23:19.248Z,37.45
2018-01-16T02:24:19.223Z,37.64
2018-01-16T02:25:19.199Z,37.64
2018-01-16T02:26:19.186Z,37.64
2018-01-16T02:27:19.176Z,37.64
2018-01-16T02:28:19.144Z,37.45
2018-01-16T02:29:19.166Z,37.64
2018-01-16T02:30:19.130Z,37.54
2018-01-16T02:31:19.108Z,37.54
2018-01-16T02:32:19.122Z,37.64
2018-01-16T02:33:19.091Z,37.64
2018-01-16T02:34:19.131Z,37.45
2018-01-16T02:35:19.069Z,37.64
2018-01-16T02:36:19.065Z,37.35
2018-01-16T02:37:19.029Z,37.35
2018-01-16T02:38:19.028Z,37.64
2018-01-16T02:39:18.991Z,37.45
2018-01-16T02:40:19.019Z,37.54
2018-01-16T02:41:18.985Z,37.35
2018-01-16T02:42:18.984Z,37.56
2018-01-16T02:43:18.957Z,37.54
2018-01-16T02:44:18.944Z,37.74
2018-01-16T02:45:18.936Z,37.35
2018-01-16T02:46:18.915Z,37.76
2018-01-16T02:47:18.899Z,37.66
2018-01-16T02:48:18.876Z,37.66
2018-01-16T02:49:18.873Z,37.74
2018-01-16T02:50:18.918Z,37.66
2018-01-16T02:51:18.871Z,37.56
2018-01-16T02:52:18.841Z,37.66
2018-01-16T02:53:18.870Z,37.54
2018-01-16T02:54:18.828Z,37.66
2018-01-16T02:55:18.803Z,37.66
2018-01-16T02:56:18.827Z,37.56
2018-01-16T02:57:18.774Z,37.64
2018-01-16T02:58:18.774Z,37.64
2018-01-16T02:59:18.824Z,37.64
2018-01-16T03:00:18.740Z,37.66
2018-01-16T03:01:18.735Z,37.76
2018-01-16T03:02:18.804Z,37.66
2018-01-16T03:03:18.695Z,37.74
2018-01-16T03:04:18.679Z,37.64
2018-01-16T03:05:18.704Z,37.66
2018-01-16T03:06:18.679Z,37.66
2018-01-16T03:07:18.640Z,37.66
2018-01-16T03:08:18.635Z,37.56
2018-01-16T03:09:18.609Z,37.64
2018-01-16T03:10:18.611Z,37.56
2018-01-16T03:11:18.621Z,37.66
2018-01-16T03:12:18.578Z,37.64
2018-01-16T03:13:18.545Z,37.66
2018-01-16T03:14:18.549Z,37.54
2018-01-16T03:15:18.533Z,37.54
2018-01-16T03:16:18.560Z,37.54
2018-01-16T03:17:18.513Z,37.66
2018-01-16T03:18:18.500Z,37.64
2018-01-16T03:19:18.482Z,37.85
2018-01-16T03:20:18.494Z,37.56
2018-01-16T03:21:18.473Z,37.66
2018-01-16T03:22:18.443Z,37.76
2018-01-16T03:23:18.427Z,37.74
2018-01-16T03:24:18.428Z,37.56
2018-01-16T03:25:18.407Z,37.66
2018-01-16T03:26:18.402Z,37.66
2018-01-16T03:27:18.377Z,37.85
2018-01-16T03:28:18.373Z,37.56
2018-01-16T03:29:18.346Z,37.85
2018-01-16T03:30:18.328Z,37.66
2018-01-16T03:31:18.350Z,37.76
2018-01-16T03:32:18.302Z,37.76
2018-01-16T03:33:18.292Z,37.66
2018-01-16T03:34:18.285Z,37.85
2018-01-16T03:35:18.313Z,37.66
2018-01-16T03:36:18.265Z,37.85
2018-01-16T03:37:18.246Z,37.76
2018-01-16T03:38:18.252Z,37.76
2018-01-16T03:39:18.227Z,37.76
2018-01-16T03:40:18.225Z,37.66
2018-01-16T03:41:18.206Z,37.56
2018-01-16T03:42:18.196Z,37.66
2018-01-16T03:43:18.173Z,37.56
2018-01-16T03:44:18.157Z,37.66
2018-01-16T03:45:18.142Z,37.76
2018-01-16T03:46:18.132Z,37.66
2018-01-16T03:47:18.141Z,37.56
2018-01-16T03:48:18.105Z,37.56
2018-01-16T03:49:18.090Z,37.76
2018-01-16T03:50:18.110Z,37.76
2018-01-16T03:51:18.088Z,37.95
2018-01-16T03:52:18.052Z,37.76
2018-01-16T03:53:18.058Z,38.14
2018-01-16T03:54:18.286Z,38.14
2018-01-16T03:55:18.011Z,38.24
2018-01-16T03:56:18.001Z,37.76
2018-01-16T03:57:18.008Z,38.24
2018-01-16T03:58:17.981Z,38.14
2018-01-16T03:59:18.103Z,37.95
2018-01-16T04:00:17.947Z,37.95
2018-01-16T04:01:17.912Z,37.95
2018-01-16T04:02:17.947Z,37.76
2018-01-16T04:03:17.903Z,37.95
2018-01-16T04:04:17.901Z,38.04
2018-01-16T04:05:17.883Z,37.76
2018-01-16T04:06:18.724Z,37.66
2018-01-16T04:07:17.864Z,37.66
2018-01-16T04:08:17.869Z,37.76
2018-01-16T04:09:17.809Z,37.66
2018-01-16T04:10:17.810Z,37.95
2018-01-16T04:11:17.803Z,37.85
2018-01-16T04:12:17.788Z,37.76
2018-01-16T04:13:17.796Z,37.56
2018-01-16T04:14:17.781Z,37.76
2018-01-16T04:15:17.749Z,37.66
2018-01-16T04:16:17.750Z,38.04
2018-01-16T04:17:17.726Z,37.76
2018-01-16T04:18:17.735Z,37.66
2018-01-16T04:19:17.695Z,37.76
2018-01-16T04:20:17.705Z,37.66
2018-01-16T04:21:17.710Z,37.85
2018-01-16T04:22:17.681Z,37.83
2018-01-16T04:23:17.679Z,37.85
2018-01-16T04:24:17.657Z,38.14
2018-01-16T04:25:17.612Z,37.83
2018-01-16T04:26:17.613Z,37.85
2018-01-16T04:27:17.587Z,37.93
2018-01-16T04:28:17.614Z,37.95
2018-01-16T04:29:17.556Z,38.04
2018-01-16T04:30:17.571Z,38.14
2018-01-16T04:31:17.572Z,37.76
2018-01-16T04:32:17.563Z,37.93
2018-01-16T04:33:17.512Z,38.02
2018-01-16T04:34:17.533Z,38.02
2018-01-16T04:35:17.482Z,38.02
2018-01-16T04:36:17.474Z,38.02
2018-01-16T04:37:17.456Z,38.02
2018-01-16T04:38:17.441Z,37.93
2018-01-16T04:39:17.432Z,38.02
2018-01-16T04:40:17.451Z,38.02
2018-01-16T04:41:17.433Z,37.93
2018-01-16T04:42:17.367Z,38.02
2018-01-16T04:43:17.366Z,37.93
2018-01-16T04:44:17.376Z,38.02
2018-01-16T04:45:17.340Z,38.12
2018-01-16T04:46:17.344Z,37.93
2018-01-16T04:47:17.308Z,38.02
2018-01-16T04:48:17.315Z,38.12
2018-01-16T04:49:17.404Z,38.12
2018-01-16T04:50:17.273Z,38.12
2018-01-16T04:51:17.257Z,38.22
2018-01-16T04:52:17.567Z,38.22
2018-01-16T04:53:17.229Z,38.10
2018-01-16T04:54:17.243Z,38.10
2018-01-16T04:55:17.215Z,38.20
2018-01-16T04:56:17.704Z,38.29
2018-01-16T04:57:17.149Z,38.10
2018-01-16T04:58:17.162Z,38.29
2018-01-16T04:59:17.192Z,38.10
2018-01-16T05:00:17.184Z,38.20
2018-01-16T05:01:17.112Z,38.20
2018-01-16T05:02:17.156Z,38.20
2018-01-16T05:03:17.081Z,38.29
2018-01-16T05:04:17.741Z,38.29
2018-01-16T05:05:17.075Z,38.20
2018-01-16T05:06:17.049Z,38.10
2018-01-16T05:07:17.018Z,38.29
2018-01-16T05:08:17.047Z,38.20
2018-01-16T05:09:17.009Z,38.20
2018-01-16T05:10:17.011Z,38.29
2018-01-16T05:11:16.992Z,38.29
2018-01-16T05:12:16.966Z,38.20
2018-01-16T05:13:16.942Z,38.29
2018-01-16T05:14:16.926Z,38.29
2018-01-16T05:15:16.938Z,38.29
2018-01-16T05:16:16.914Z,38.20
2018-01-16T05:17:16.883Z,38.20
2018-01-16T05:18:16.875Z,38.28
2018-01-16T05:19:16.857Z,38.39
2018-01-16T05:20:16.866Z,38.29
2018-01-16T05:21:16.844Z,38.28
2018-01-16T05:22:16.797Z,38.76
2018-01-16T05:23:16.828Z,38.18
2018-01-16T05:24:16.786Z,38.37
2018-01-16T05:25:16.800Z,38.37
2018-01-16T05:26:16.771Z,38.37
2018-01-16T05:27:16.750Z,38.37
2018-01-16T05:28:16.732Z,38.28
2018-01-16T05:29:16.719Z,38.37
2018-01-16T05:30:16.723Z,38.37
2018-01-16T05:31:16.700Z,38.47
2018-01-16T05:32:16.675Z,38.37
2018-01-16T05:33:16.656Z,38.37
2018-01-16T05:34:16.639Z,38.47
2018-01-16T05:35:16.626Z,38.66
2018-01-16T05:36:16.635Z,38.37
2018-01-16T05:37:16.592Z,38.37
2018-01-16T05:38:16.619Z,38.56
2018-01-16T05:39:16.582Z,38.47
2018-01-16T05:40:16.809Z,38.47
2018-01-16T05:41:16.559Z,38.47
2018-01-16T05:42:16.524Z,38.47
2018-01-16T05:43:16.509Z,38.28
2018-01-16T05:44:16.493Z,38.37
2018-01-16T05:45:16.463Z,38.76
2018-01-16T05:46:16.489Z,38.56
2018-01-16T05:47:16.480Z,38.37
2018-01-16T05:48:16.443Z,38.47
2018-01-16T05:49:16.426Z,38.28
2018-01-16T05:50:16.415Z,38.47
2018-01-16T05:51:16.401Z,38.54
2018-01-16T05:52:16.415Z,38.47
2018-01-16T05:53:16.383Z,38.45
2018-01-16T05:54:16.392Z,38.54
2018-01-16T05:55:16.335Z,38.85
2018-01-16T05:56:16.315Z,38.54
2018-01-16T05:57:16.326Z,38.45
2018-01-16T05:58:16.460Z,38.35
2018-01-16T05:59:16.255Z,38.64
2018-01-16T06:00:16.258Z,38.93
2018-01-16T06:01:16.245Z,39.12
2018-01-16T06:02:16.208Z,38.64
2018-01-16T06:03:16.225Z,38.74
2018-01-16T06:04:16.756Z,38.64
2018-01-16T06:05:16.185Z,38.74
2018-01-16T06:06:16.167Z,38.64
2018-01-16T06:07:16.155Z,38.74
2018-01-16T06:08:16.158Z,38.93
2018-01-16T06:09:16.158Z,38.54
2018-01-16T06:10:16.118Z,38.74
2018-01-16T06:11:16.099Z,38.93
2018-01-16T06:12:16.078Z,38.93
2018-01-16T06:13:16.084Z,38.74
2018-01-16T06:14:16.052Z,38.84
2018-01-16T06:15:16.040Z,38.84
2018-01-16T06:16:16.022Z,39.03
2018-01-16T06:17:16.005Z,38.84
2018-01-16T06:18:16.049Z,39.03
2018-01-16T06:19:15.992Z,39.03
2018-01-16T06:20:15.952Z,39.03
2018-01-16T06:21:15.944Z,39.22
2018-01-16T06:22:15.920Z,39.12
2018-01-16T06:23:15.914Z,39.12
2018-01-16T06:24:15.971Z,39.12
2018-01-16T06:25:15.880Z,39.22
2018-01-16T06:26:15.881Z,39.70
2018-01-16T06:27:16.072Z,39.22
2018-01-16T06:28:15.854Z,38.93
2018-01-16T06:29:15.834Z,39.41
2018-01-16T06:30:15.815Z,39.39
2018-01-16T06:31:15.779Z,39.12
2018-01-16T06:32:15.761Z,39.12
2018-01-16T06:33:15.748Z,39.49
2018-01-16T06:34:15.728Z,39.39
2018-01-16T06:35:15.734Z,39.78
2018-01-16T06:36:15.701Z,39.58
2018-01-16T06:37:15.914Z,39.78
2018-01-16T06:38:15.672Z,39.78
2018-01-16T06:39:15.680Z,39.68
2018-01-16T06:40:15.690Z,39.87
2018-01-16T06:41:15.624Z,40.25
2018-01-16T06:42:15.612Z,39.58
2018-01-16T06:43:15.600Z,39.58
2018-01-16T06:44:15.580Z,39.58
2018-01-16T06:45:15.581Z,39.58
2018-01-16T06:46:15.569Z,39.39
2018-01-16T06:47:15.553Z,39.49
2018-01-16T06:48:15.520Z,39.49
2018-01-16T06:49:15.506Z,40.06
2018-01-16T06:50:15.530Z,39.97
2018-01-16T06:51:15.520Z,39.97
2018-01-16T06:52:15.461Z,39.78
2018-01-16T06:53:15.466Z,39.87
2018-01-16T06:54:15.516Z,39.78
2018-01-16T06:55:15.406Z,39.78
2018-01-16T06:56:15.419Z,39.78
2018-01-16T06:57:15.380Z,39.78
2018-01-16T06:58:15.399Z,39.97
2018-01-16T06:59:15.346Z,39.68
2018-01-16T07:00:15.558Z,39.97
2018-01-16T07:01:15.349Z,39.87
2018-01-16T07:02:15.300Z,39.78
2018-01-16T07:03:15.284Z,39.97
2018-01-16T07:04:15.511Z,39.97
2018-01-16T07:05:15.265Z,39.97
2018-01-16T07:06:15.269Z,40.35
2018-01-16T07:07:15.247Z,40.06
2018-01-16T07:08:15.211Z,40.06
2018-01-16T07:09:15.221Z,39.97
2018-01-16T07:10:15.181Z,40.35
2018-01-16T07:11:15.188Z,40.45
2018-01-16T07:12:15.176Z,40.43
2018-01-16T07:13:15.142Z,40.62
2018-01-16T07:14:15.158Z,40.52
2018-01-16T07:15:15.102Z,40.64
2018-01-16T07:16:15.120Z,40.55
2018-01-16T07:17:15.121Z,40.06
2018-01-16T07:18:15.054Z,40.43
2018-01-16T07:19:15.048Z,40.43
2018-01-16T07:20:15.026Z,40.52
2018-01-16T07:21:15.010Z,40.43
2018-01-16T07:22:15.030Z,40.33
2018-01-16T07:23:14.980Z,40.33
2018-01-16T07:24:14.964Z,40.23
2018-01-16T07:25:14.977Z,40.43
2018-01-16T07:26:14.939Z,40.52
2018-01-16T07:27:14.949Z,40.23
2018-01-16T07:28:14.906Z,40.52
2018-01-16T07:29:14.977Z,40.43
2018-01-16T07:30:14.877Z,40.52
2018-01-16T07:31:14.856Z,40.33
2018-01-16T07:32:14.862Z,40.43
2018-01-16T07:33:14.862Z,40.33
2018-01-16T07:34:14.811Z,40.52
2018-01-16T07:35:14.794Z,40.81
2018-01-16T07:36:14.792Z,40.72
2018-01-16T07:37:14.761Z,40.72
2018-01-16T07:38:14.768Z,40.81
2018-01-16T07:39:14.734Z,40.43
2018-01-16T07:40:14.739Z,40.62
2018-01-16T07:41:14.700Z,40.62
2018-01-16T07:42:14.734Z,40.52
2018-01-16T07:43:14.693Z,40.72
2018-01-16T07:44:14.650Z,40.72
2018-01-16T07:45:14.636Z,40.72
2018-01-16T07:46:14.629Z,40.62
2018-01-16T07:47:14.612Z,40.81
2018-01-16T07:48:14.619Z,40.72
2018-01-16T07:49:14.573Z,40.81
2018-01-16T07:50:14.566Z,40.72
2018-01-16T07:51:14.544Z,40.81
2018-01-16T07:52:14.532Z,41.20
2018-01-16T07:53:14.528Z,41.10
2018-01-16T07:54:14.513Z,41.20
2018-01-16T07:55:14.507Z,41.67
2018-01-16T07:56:14.472Z,41.67
2018-01-16T07:57:14.448Z,41.49
2018-01-16T07:58:14.467Z,41.39
2018-01-16T07:59:14.453Z,41.20
2018-01-16T08:00:15.233Z,41.29
2018-01-16T08:01:14.386Z,41.29
2018-01-16T08:02:14.370Z,41.39
2018-01-16T08:03:14.358Z,41.29
2018-01-16T08:04:14.365Z,41.39
2018-01-16T08:05:14.418Z,41.39
2018-01-16T08:06:14.313Z,41.29
2018-01-16T08:07:14.318Z,41.29
2018-01-16T08:08:14.282Z,41.39
2018-01-16T08:09:14.266Z,41.39
2018-01-16T08:10:15.301Z,41.27
2018-01-16T08:11:14.234Z,41.17
2018-01-16T08:12:14.214Z,41.17
2018-01-16T08:13:14.190Z,41.29
2018-01-16T08:14:14.191Z,41.49
2018-01-16T08:15:14.172Z,41.46
2018-01-16T08:16:14.167Z,41.27
2018-01-16T08:17:14.154Z,41.27
2018-01-16T08:18:14.123Z,41.46
2018-01-16T08:19:14.142Z,41.37
2018-01-16T08:20:14.098Z,41.37
2018-01-16T08:21:14.092Z,41.56
2018-01-16T08:22:14.068Z,41.56
2018-01-16T08:23:14.048Z,41.17
2018-01-16T08:24:14.054Z,41.46
2018-01-16T08:25:14.008Z,41.17
2018-01-16T08:26:14.016Z,41.27
2018-01-16T08:27:13.997Z,41.27
2018-01-16T08:28:13.958Z,41.37
2018-01-16T08:29:13.943Z,41.46
2018-01-16T08:30:13.934Z,41.27
2018-01-16T08:31:13.950Z,41.17
2018-01-16T08:32:13.920Z,41.56
2018-01-16T08:33:13.890Z,41.46
2018-01-16T08:34:13.863Z,41.66
2018-01-16T08:35:13.849Z,41.56
2018-01-16T08:36:13.840Z,41.46
2018-01-16T08:37:13.841Z,41.46
2018-01-16T08:38:13.813Z,41.46
2018-01-16T08:39:13.794Z,41.46
2018-01-16T08:40:13.777Z,41.46
2018-01-16T08:41:13.781Z,41.66
2018-01-16T08:42:13.779Z,41.56
2018-01-16T08:43:13.734Z,41.56
2018-01-16T08:44:13.710Z,41.66
2018-01-16T08:45:13.693Z,41.56
2018-01-16T08:46:13.686Z,41.56
2018-01-16T08:47:13.686Z,41.56
2018-01-16T08:48:13.653Z,41.56
2018-01-16T08:49:13.639Z,41.56
2018-01-16T08:50:13.618Z,41.46
2018-01-16T08:51:13.607Z,41.46
2018-01-16T08:52:13.617Z,41.56
2018-01-16T08:53:13.569Z,41.66
2018-01-16T08:54:13.553Z,41.56
2018-01-16T08:55:13.560Z,41.46
2018-01-16T08:56:13.548Z,41.56
2018-01-16T08:57:13.524Z,41.56
2018-01-16T08:58:13.492Z,41.46
2018-01-16T08:59:13.476Z,41.56
2018-01-16T09:00:13.500Z,41.66
2018-01-16T09:01:13.443Z,41.46
2018-01-16T09:02:13.445Z,41.66
2018-01-16T09:03:13.650Z,41.66
2018-01-16T09:04:13.411Z,41.46
2018-01-16T09:05:13.399Z,41.66
2018-01-16T09:06:13.369Z,41.66
2018-01-16T09:07:13.396Z,41.85
2018-01-16T09:08:13.356Z,41.66
2018-01-16T09:09:13.319Z,41.85
2018-01-16T09:10:13.302Z,41.66
2018-01-16T09:11:13.337Z,41.75
2018-01-16T09:12:13.273Z,41.85
2018-01-16T09:13:13.276Z,41.85
2018-01-16T09:14:13.232Z,41.75
2018-01-16T09:15:13.254Z,41.75
2018-01-16T09:16:13.224Z,41.75
2018-01-16T09:17:13.195Z,41.56
2018-01-16T09:18:13.190Z,41.85
2018-01-16T09:19:13.182Z,41.85
2018-01-16T09:20:13.163Z,41.56
2018-01-16T09:21:13.127Z,41.75
2018-01-16T09:22:13.114Z,41.85
2018-01-16T09:23:13.102Z,41.75
2018-01-16T09:24:13.102Z,41.85
2018-01-16T09:25:13.062Z,41.66
2018-01-16T09:26:13.082Z,41.75
2018-01-16T09:27:13.057Z,41.85
2018-01-16T09:28:13.016Z,41.94
2018-01-16T09:29:13.064Z,41.66
2018-01-16T09:30:13.001Z,41.94
2018-01-16T09:31:12.972Z,41.66
2018-01-16T09:32:12.948Z,41.94
2018-01-16T09:33:13.149Z,41.85
2018-01-16T09:34:12.924Z,41.94
2018-01-16T09:35:12.926Z,41.75
2018-01-16T09:36:12.911Z,41.94
2018-01-16T09:37:12.867Z,41.85
2018-01-16T09:38:12.858Z,41.85
2018-01-16T09:39:12.846Z,41.56
2018-01-16T09:40:12.826Z,41.66
2018-01-16T09:41:12.827Z,41.75
2018-01-16T09:42:12.795Z,41.75
2018-01-16T09:43:12.804Z,41.94
2018-01-16T09:44:12.767Z,42.04
2018-01-16T09:45:12.748Z,42.13
2018-01-16T09:46:12.752Z,42.13
2018-01-16T09:47:12.713Z,41.66
2018-01-16T09:48:12.698Z,42.13
2018-01-16T09:49:12.680Z,42.04
2018-01-16T09:50:12.675Z,42.13
2018-01-16T09:51:12.693Z,42.04
2018-01-16T09:52:12.636Z,42.04
2018-01-16T09:53:12.625Z,42.04
2018-01-16T09:54:12.654Z,41.85
2018-01-16T09:55:12.587Z,41.85
2018-01-16T09:56:12.598Z,42.04
2018-01-16T09:57:13.261Z,41.94
2018-01-16T09:58:12.559Z,41.85
2018-01-16T09:59:12.524Z,42.04
2018-01-16T10:00:12.508Z,41.94
2018-01-16T10:01:12.518Z,41.85
2018-01-16T10:02:12.503Z,41.94
2018-01-16T10:03:12.464Z,41.85
2018-01-16T10:04:12.446Z,41.85
2018-01-16T10:05:12.424Z,41.85
2018-01-16T10:06:12.414Z,41.94
2018-01-16T10:07:12.426Z,41.94
2018-01-16T10:08:12.380Z,42.13
2018-01-16T10:09:12.366Z,42.04
2018-01-16T10:10:12.345Z,42.04
2018-01-16T10:11:12.333Z,41.94
2018-01-16T10:12:12.334Z,41.85
2018-01-16T10:13:12.670Z,41.94
2018-01-16T10:14:12.324Z,41.94
2018-01-16T10:15:12.273Z,41.75
2018-01-16T10:16:12.259Z,41.85
2018-01-16T10:17:12.239Z,41.94
2018-01-16T10:18:12.221Z,42.13
2018-01-16T10:19:12.228Z,41.85
2018-01-16T10:20:12.192Z,42.13
2018-01-16T10:21:12.172Z,42.04
2018-01-16T10:22:12.167Z,42.04
2018-01-16T10:23:12.143Z,42.23
2018-01-16T10:24:12.152Z,41.93
2018-01-16T10:25:12.111Z,41.85
2018-01-16T10:26:12.098Z,41.85
2018-01-16T10:27:12.080Z,41.94
2018-01-16T10:28:12.104Z,41.85
2018-01-16T10:29:12.044Z,41.85
2018-01-16T10:30:12.062Z,41.94
2018-01-16T10:31:12.022Z,42.13
2018-01-16T10:32:12.038Z,42.33
2018-01-16T10:33:11.981Z,41.94
2018-01-16T10:34:11.972Z,42.23
2018-01-16T10:35:11.980Z,42.13
2018-01-16T10:36:11.980Z,42.13
2018-01-16T10:37:11.920Z,42.04
2018-01-16T10:38:11.909Z,42.04
2018-01-16T10:39:11.895Z,42.13
2018-01-16T10:40:11.873Z,42.52
2018-01-16T10:41:11.897Z,42.02
2018-01-16T10:42:11.839Z,42.61
2018-01-16T10:43:11.826Z,42.23
2018-01-16T10:44:11.917Z,42.23
2018-01-16T10:45:11.887Z,42.23
2018-01-16T10:46:11.878Z,42.52
2018-01-16T10:47:11.756Z,42.52
2018-01-16T10:48:11.764Z,42.52
2018-01-16T10:49:11.733Z,42.52
2018-01-16T10:50:11.714Z,42.52
2018-01-16T10:51:11.720Z,42.43
2018-01-16T10:52:11.691Z,42.60
2018-01-16T10:53:11.661Z,42.21
2018-01-16T10:54:11.645Z,42.43
2018-01-16T10:55:11.888Z,42.21
2018-01-16T10:56:11.660Z,42.40
2018-01-16T10:57:11.600Z,42.30
2018-01-16T10:58:11.591Z,42.23
2018-01-16T10:59:11.592Z,42.52
2018-01-16T11:00:11.566Z,42.30
2018-01-16T11:01:11.553Z,42.30
2018-01-16T11:02:11.577Z,42.50
2018-01-16T11:03:11.514Z,42.40
2018-01-16T11:04:11.488Z,42.30
2018-01-16T11:05:11.471Z,42.33
2018-01-16T11:06:12.276Z,42.21
2018-01-16T11:07:11.465Z,42.30
2018-01-16T11:08:11.428Z,42.21
2018-01-16T11:09:11.413Z,42.21
2018-01-16T11:10:11.436Z,42.43
2018-01-16T11:11:11.385Z,42.52
2018-01-16T11:12:11.389Z,42.11
2018-01-16T11:13:11.350Z,42.21
2018-01-16T11:14:11.329Z,42.52
2018-01-16T11:15:11.323Z,42.33
2018-01-16T11:16:11.304Z,42.52
2018-01-16T11:17:11.357Z,42.21
2018-01-16T11:18:11.281Z,42.30
2018-01-16T11:19:11.255Z,42.11
2018-01-16T11:20:11.239Z,42.30
2018-01-16T11:21:11.224Z,42.11
2018-01-16T11:22:11.232Z,42.30
2018-01-16T11:23:11.217Z,42.21
2018-01-16T11:24:11.181Z,42.30
2018-01-16T11:25:11.153Z,42.40
2018-01-16T11:26:11.137Z,42.21
2018-01-16T11:27:11.157Z,42.40
2018-01-16T11:28:11.107Z,42.13
2018-01-16T11:29:11.093Z,42.40
2018-01-16T11:30:11.082Z,42.60
2018-01-16T11:31:11.118Z,42.60
2018-01-16T11:32:11.045Z,42.60
2018-01-16T11:33:11.076Z,42.60
2018-01-16T11:34:11.019Z,42.50
2018-01-16T11:35:11.002Z,42.69
2018-01-16T11:36:10.978Z,42.98
2018-01-16T11:37:10.964Z,42.50
2018-01-16T11:38:10.990Z,42.69
2018-01-16T11:39:10.937Z,42.79
2018-01-16T11:40:10.937Z,42.79
2018-01-16T11:41:10.899Z,42.98
2018-01-16T11:42:10.885Z,42.69
2018-01-16T11:43:10.942Z,42.60
2018-01-16T11:44:10.865Z,42.60
2018-01-16T11:45:10.849Z,42.60
2018-01-16T11:46:10.817Z,42.60
2018-01-16T11:47:10.800Z,42.69
2018-01-16T11:48:10.818Z,42.88
2018-01-16T11:49:10.816Z,42.88
2018-01-16T11:50:10.767Z,42.88
2018-01-16T11:51:10.746Z,42.90
2018-01-16T11:52:10.791Z,42.88
2018-01-16T11:53:10.730Z,42.98
2018-01-16T11:54:10.692Z,42.60
2018-01-16T11:55:10.679Z,42.88
2018-01-16T11:56:10.681Z,42.50
2018-01-16T11:57:10.644Z,42.69
2018-01-16T11:58:10.669Z,42.88
2018-01-16T11:59:10.649Z,42.98
2018-01-16T12:00:10.598Z,42.79
2018-01-16T12:01:10.585Z,42.88
2018-01-16T12:02:10.650Z,42.98
2018-01-16T12:03:11.316Z,42.79
2018-01-16T12:04:10.610Z,42.79
2018-01-16T12:05:10.523Z,42.88
2018-01-16T12:06:11.289Z,42.79
2018-01-16T12:07:10.487Z,42.88
2018-01-16T12:08:10.489Z,42.69
2018-01-16T12:09:10.496Z,42.79
2018-01-16T12:10:10.440Z,42.88
2018-01-16T12:11:10.468Z,42.88
2018-01-16T12:12:10.427Z,42.69
2018-01-16T12:13:10.396Z,42.50
2018-01-16T12:14:10.426Z,42.50
2018-01-16T12:15:10.386Z,42.79
2018-01-16T12:16:10.342Z,42.79
2018-01-16T12:17:10.325Z,42.60
2018-01-16T12:18:10.350Z,42.69
2018-01-16T12:19:10.350Z,42.60
2018-01-16T12:20:10.291Z,42.60
2018-01-16T12:21:10.255Z,42.60
2018-01-16T12:22:10.263Z,42.79
2018-01-16T12:23:10.959Z,42.88
2018-01-16T12:24:10.846Z,42.88
2018-01-16T12:25:10.423Z,42.88
2018-01-16T12:26:10.186Z,42.88
2018-01-16T12:27:10.215Z,42.88
2018-01-16T12:28:10.178Z,42.88
2018-01-16T12:29:10.232Z,42.79
2018-01-16T12:30:10.173Z,42.88
2018-01-16T12:31:10.133Z,42.79
2018-01-16T12:32:10.141Z,42.69
2018-01-16T12:33:10.095Z,42.79
2018-01-16T12:34:10.136Z,42.88
2018-01-16T12:35:10.175Z,42.88
2018-01-16T12:36:10.036Z,42.69
2018-01-16T12:37:10.041Z,42.79
2018-01-16T12:38:10.009Z,42.79
2018-01-16T12:39:10.219Z,42.79
2018-01-16T12:40:09.994Z,42.98
2018-01-16T12:41:09.966Z,42.79
2018-01-16T12:42:09.926Z,42.69
2018-01-16T12:43:09.970Z,42.88
2018-01-16T12:44:09.945Z,42.98
2018-01-16T12:45:10.833Z,42.98
2018-01-16T12:46:09.885Z,42.79
2018-01-16T12:47:09.848Z,42.98
2018-01-16T12:48:09.846Z,42.60
2018-01-16T12:49:09.826Z,42.88
2018-01-16T12:50:09.819Z,42.79
2018-01-16T12:51:09.857Z,42.98
2018-01-16T12:52:09.819Z,42.88